Jrs Merkur — V2FD8 — position and weather

sailwx.info

Track history (hours):
 
Tides and Currents Weather Stations Pressure Air Temp Water Temp Dewpoint Dewpoint Depression Visibility Wind Speed Wind Dir Waves Ship Positions

Jrs Merkur

Last reported at 2015-Sep-04 03:28 UTC. Time now 2015-Sep-04 03:51 UTC.
Position N 51°56' E 003°43'.

Length 107 m; draft 5.4 m.

Type: Cargo ship. MMSI: 305644000.

Date/timePositionNaut miles runAvg speedWind from/ knotsBaromVisibWave heightAir tempDewpointWater temp
2015-Sep-04 03:28N 51°56' E 003°43'0 0.0
2015-Sep-04 02:28N 51°56' E 003°43'0 0.1
2015-Sep-04 01:31N 51°56' E 003°43'0 0.1
2015-Sep-04 00:31N 51°56' E 003°43'0 0.0
2015-Sep-03 23:31N 51°56' E 003°43'0 0.0
2015-Sep-03 22:31N 51°56' E 003°43'0 0.1
2015-Sep-03 20:31N 51°56' E 003°43'0 0.0
2015-Sep-03 19:31N 51°56' E 003°43'0 0.0
2015-Sep-03 18:22N 51°56' E 003°43'0 0.0
2015-Sep-03 17:31N 51°56' E 003°43'0 0.0
2015-Sep-03 16:28N 51°56' E 003°43'0 0.1
2015-Sep-03 15:31N 51°56' E 003°43'0 0.1
2015-Sep-03 14:31N 51°56' E 003°43'0 0.1
2015-Sep-03 13:25N 51°56' E 003°43'0 0.0
2015-Sep-03 11:31N 51°56' E 003°43'0 0.0
2015-Sep-03 10:28N 51°56' E 003°43'0 0.1
2015-Sep-03 09:28N 51°56' E 003°43'0 0.1
2015-Sep-03 07:22N 51°56' E 003°43'0 0.0
2015-Sep-03 06:31N 51°56' E 003°43'0 0.0
2015-Sep-03 05:31N 51°56' E 003°43'0 0.0
2015-Sep-03 04:31N 51°56' E 003°43'0 0.0
2015-Sep-03 03:31N 51°56' E 003°43'0 0.1
2015-Sep-03 02:28N 51°56' E 003°43'0 0.1
2015-Sep-03 01:28N 51°56' E 003°43'0 0.0
2015-Sep-03 00:31N 51°56' E 003°43'0 0.0
2015-Sep-02 23:28N 51°56' E 003°43'0 0.0
2015-Sep-02 22:28N 51°56' E 003°43'0 0.0
2015-Sep-02 21:28N 51°56' E 003°43'0 0.0
2015-Sep-02 20:31N 51°56' E 003°43'0 0.1
2015-Sep-02 19:22N 51°56' E 003°43'0 0.0
2015-Sep-02 18:31N 51°56' E 003°43'0 0.0
2015-Sep-02 17:31N 51°56' E 003°43'0 0.0
2015-Sep-02 16:22N 51°56' E 003°43'0 0.0
2015-Sep-02 15:31N 51°56' E 003°43'0 0.1
2015-Sep-02 14:31N 51°56' E 003°43'0 0.0
2015-Sep-02 12:10N 51°56' E 003°43'0 0.0
2015-Sep-02 11:10N 51°56' E 003°43'0 0.0
2015-Sep-02 10:22N 51°56' E 003°43'0 0.1
2015-Sep-02 09:13N 51°56' E 003°43'0 0.1
2015-Sep-02 07:16N 51°56' E 003°43'0 0.0
2015-Sep-02 05:22N 51°56' E 003°43'0 0.0
2015-Sep-02 04:16N 51°56' E 003°43'0 0.0
2015-Sep-02 03:31N 51°56' E 003°43'0 0.1
2015-Sep-02 02:19N 51°56' E 003°43'0 0.1
2015-Sep-02 01:31N 51°56' E 003°43'0 0.1
2015-Sep-02 00:25N 51°56' E 003°43'0 0.0
2015-Sep-01 23:31N 51°56' E 003°43'0 0.0
2015-Sep-01 22:31N 51°56' E 003°43'0 0.0
2015-Sep-01 21:31N 51°56' E 003°43'0 0.1
2015-Sep-01 20:31N 51°56' E 003°43'0 0.0
2015-Sep-01 19:31N 51°56' E 003°43'0 0.0
2015-Sep-01 18:28N 51°56' E 003°43'0 0.0
2015-Sep-01 16:31N 51°56' E 003°43'0 0.0
2015-Sep-01 15:31N 51°56' E 003°43'0 0.1
2015-Sep-01 14:28N 51°56' E 003°43'0 0.1
2015-Sep-01 13:31N 51°56' E 003°43'0 0.0
2015-Sep-01 12:28N 51°56' E 003°43'0 0.0
2015-Sep-01 11:31N 51°56' E 003°43'0 0.0
2015-Sep-01 10:31N 51°56' E 003°43'0 0.0
2015-Sep-01 08:34N 51°56' E 003°43'0 0.0
2015-Sep-01 07:10N 51°56' E 003°43'0 0.0
2015-Sep-01 06:31N 51°56' E 003°43'0 0.1
2015-Sep-01 05:16N 51°56' E 003°43'0 0.0
2015-Sep-01 03:28N 51°56' E 003°43'0 0.0
2015-Sep-01 02:28N 51°56' E 003°43'0 0.1
2015-Sep-01 01:34N 51°56' E 003°43'0 0.0
2015-Sep-01 00:28N 51°56' E 003°43'0 0.0
2015-Aug-31 23:22N 51°56' E 003°43'0 0.0
2015-Aug-31 22:34N 51°56' E 003°43'0 0.0
2015-Aug-31 21:25N 51°56' E 003°43'0 0.1
2015-Aug-31 20:28N 51°56' E 003°43'0 0.1
2015-Aug-31 19:34N 51°56' E 003°43'0 0.1
2015-Aug-31 18:19N 51°56' E 003°43'0 0.0
2015-Aug-31 17:22N 51°56' E 003°43'2 2.0
2015-Aug-31 16:33N 51°57' E 003°44'8 8.1
2015-Aug-31 15:33N 52°02' E 003°55'9 8.8
2015-Aug-31 14:33N 51°58' E 004°08'8 7.9
2015-Aug-31 13:33N 51°54' E 004°19'2 1.8
2015-Aug-31 12:25N 51°54' E 004°22'0 0.0
2015-Aug-31 11:31N 51°54' E 004°22'0 0.0
2015-Aug-31 10:31N 51°54' E 004°22'0 0.0
2015-Aug-31 09:28N 51°54' E 004°22'0 0.0
2015-Aug-31 08:28N 51°54' E 004°22'0 0.0
2015-Aug-31 07:28N 51°54' E 004°22'0 0.0
2015-Aug-31 06:31N 51°54' E 004°22'0 0.0
2015-Aug-31 05:28N 51°54' E 004°22'0 0.0
2015-Aug-31 04:31N 51°54' E 004°22'0 0.0
2015-Aug-31 03:31N 51°54' E 004°22'0 0.0
2015-Aug-31 02:31N 51°54' E 004°22'0 0.0
2015-Aug-31 01:31N 51°54' E 004°22'0 0.0
2015-Aug-31 00:28N 51°54' E 004°22'0 0.0
2015-Aug-30 23:19N 51°54' E 004°22'0 0.0
2015-Aug-30 22:31N 51°54' E 004°22'0 0.0
2015-Aug-30 21:28N 51°54' E 004°22'0 0.0
2015-Aug-30 20:31N 51°54' E 004°22'0 0.0
2015-Aug-30 19:31N 51°54' E 004°22'0 0.0
2015-Aug-30 18:28N 51°54' E 004°22'0 0.0
2015-Aug-30 17:28N 51°54' E 004°22'0 0.0
2015-Aug-30 16:31N 51°54' E 004°22'0 0.0
2015-Aug-30 15:28N 51°54' E 004°22'0 0.0
2015-Aug-30 14:31N 51°54' E 004°22'0 0.0
2015-Aug-30 13:31N 51°54' E 004°22'0 0.0
2015-Aug-30 12:31N 51°54' E 004°22'0 0.0
2015-Aug-30 11:31N 51°54' E 004°22'0 0.0
2015-Aug-30 10:31N 51°54' E 004°22'0 0.0
2015-Aug-30 09:31N 51°54' E 004°22'0 0.0
2015-Aug-30 08:31N 51°54' E 004°22'0 0.0
2015-Aug-30 07:31N 51°54' E 004°22'0 0.0
2015-Aug-30 06:31N 51°54' E 004°22'0 0.0
2015-Aug-30 05:31N 51°54' E 004°22'0 0.0
2015-Aug-30 04:31N 51°54' E 004°22'0 0.0
2015-Aug-30 03:31N 51°54' E 004°22'0 0.0
2015-Aug-30 02:31N 51°54' E 004°22'0 0.0
2015-Aug-30 01:31N 51°54' E 004°22'0 0.0
2015-Aug-30 00:31N 51°54' E 004°22'0 0.0
2015-Aug-29 23:31N 51°54' E 004°22'0 0.0
2015-Aug-29 22:28N 51°54' E 004°22'0 0.0
2015-Aug-29 21:31N 51°54' E 004°22'0 0.0
2015-Aug-29 20:31N 51°54' E 004°22'0 0.0
2015-Aug-29 19:31N 51°54' E 004°22'0 0.0
2015-Aug-29 18:31N 51°54' E 004°22'0 0.0
2015-Aug-29 17:31N 51°54' E 004°22'0 0.0
2015-Aug-29 16:31N 51°54' E 004°22'0 0.0
2015-Aug-29 15:31N 51°54' E 004°22'0 0.0
2015-Aug-29 14:31N 51°54' E 004°22'0 0.0
2015-Aug-29 13:31N 51°54' E 004°22'0 0.0
2015-Aug-29 12:31N 51°54' E 004°22'0 0.0
2015-Aug-29 11:31N 51°54' E 004°22'0 0.0
2015-Aug-29 10:31N 51°54' E 004°22'0 0.0
2015-Aug-29 09:31N 51°54' E 004°22'0 0.0
2015-Aug-29 08:31N 51°54' E 004°22'0 0.0
2015-Aug-29 07:31N 51°54' E 004°22'0 0.0
2015-Aug-29 06:31N 51°54' E 004°22'0 0.0
2015-Aug-29 05:31N 51°54' E 004°22'0 0.0
2015-Aug-29 04:31N 51°54' E 004°22'0 0.0
2015-Aug-29 03:28N 51°54' E 004°22'0 0.0
2015-Aug-29 02:31N 51°54' E 004°22'0 0.0
2015-Aug-29 01:31N 51°54' E 004°22'0 0.0
2015-Aug-29 00:31N 51°54' E 004°22'0 0.0
2015-Aug-28 23:28N 51°54' E 004°22'0 0.0
2015-Aug-28 22:31N 51°54' E 004°22'0 0.0
2015-Aug-28 21:31N 51°54' E 004°22'0 0.0
2015-Aug-28 20:31N 51°54' E 004°22'0 0.0
2015-Aug-28 19:34N 51°54' E 004°22'0 0.0
2015-Aug-28 18:31N 51°54' E 004°22'0 0.1
2015-Aug-28 17:33N 51°54' E 004°22'6 5.9
2015-Aug-28 16:34N 51°56' E 004°13'9 8.7
2015-Aug-28 15:34N 51°60' E 004°00'1010.4
2015-Aug-28 14:34N 51°59' E 003°43'1110.8
2015-Aug-28 13:33N 51°56' E 003°27'1211.3
2015-Aug-28 12:32N 51°52' E 003°09'1111.1
2015-Aug-28 11:33N 51°49' E 002°52'2511.0
2015-Aug-28 09:19N 51°33' E 002°21'810.5
2015-Aug-28 08:33N 51°27' E 002°13'9 9.0
2015-Aug-28 07:34N 51°19' E 002°06'8 7.8
2015-Aug-28 06:34N 51°12' E 002°01'8 7.7
2015-Aug-28 05:34N 51°08' E 001°51'8 7.5
2015-Aug-28 04:33N 51°03' E 001°42'8 8.0
2015-Aug-28 03:32N 50°57' E 001°33'9 9.1
2015-Aug-28 02:33N 50°49' E 001°26'  
Track history (hours):
 
Tides and Currents Weather Stations Pressure Air Temp Water Temp Dewpoint Dewpoint Depression Visibility Wind Speed Wind Dir Waves Ship Positions

Jrs Merkur

Last reported at 2015-Sep-04 03:28 UTC. Time now 2015-Sep-04 03:51 UTC.
Position N 51°56' E 003°43'.

Length 107 m; draft 5.4 m.

Type: Cargo ship. MMSI: 305644000.

Date/timePositionNaut miles runAvg speedWind from/ knotsBaromVisibWave heightAir tempDewpointWater temp
2015-Sep-04 03:28N 51°56' E 003°43'0 0.0
2015-Sep-04 02:28N 51°56' E 003°43'0 0.1
2015-Sep-04 01:31N 51°56' E 003°43'0 0.1
2015-Sep-04 00:31N 51°56' E 003°43'0 0.0
2015-Sep-03 23:31N 51°56' E 003°43'0 0.0
2015-Sep-03 22:31N 51°56' E 003°43'0 0.1
2015-Sep-03 20:31N 51°56' E 003°43'0 0.0
2015-Sep-03 19:31N 51°56' E 003°43'0 0.0
2015-Sep-03 18:22N 51°56' E 003°43'0 0.0
2015-Sep-03 17:31N 51°56' E 003°43'0 0.0
2015-Sep-03 16:28N 51°56' E 003°43'0 0.1
2015-Sep-03 15:31N 51°56' E 003°43'0 0.1
2015-Sep-03 14:31N 51°56' E 003°43'0 0.1
2015-Sep-03 13:25N 51°56' E 003°43'0 0.0
2015-Sep-03 11:31N 51°56' E 003°43'0 0.0
2015-Sep-03 10:28N 51°56' E 003°43'0 0.1
2015-Sep-03 09:28N 51°56' E 003°43'0 0.1
2015-Sep-03 07:22N 51°56' E 003°43'0 0.0
2015-Sep-03 06:31N 51°56' E 003°43'0 0.0
2015-Sep-03 05:31N 51°56' E 003°43'0 0.0
2015-Sep-03 04:31N 51°56' E 003°43'0 0.0
2015-Sep-03 03:31N 51°56' E 003°43'0 0.1
2015-Sep-03 02:28N 51°56' E 003°43'0 0.1
2015-Sep-03 01:28N 51°56' E 003°43'0 0.0
2015-Sep-03 00:31N 51°56' E 003°43'0 0.0
2015-Sep-02 23:28N 51°56' E 003°43'0 0.0
2015-Sep-02 22:28N 51°56' E 003°43'0 0.0
2015-Sep-02 21:28N 51°56' E 003°43'0 0.0
2015-Sep-02 20:31N 51°56' E 003°43'0 0.1
2015-Sep-02 19:22N 51°56' E 003°43'0 0.0
2015-Sep-02 18:31N 51°56' E 003°43'0 0.0
2015-Sep-02 17:31N 51°56' E 003°43'0 0.0
2015-Sep-02 16:22N 51°56' E 003°43'0 0.0
2015-Sep-02 15:31N 51°56' E 003°43'0 0.1
2015-Sep-02 14:31N 51°56' E 003°43'0 0.0
2015-Sep-02 12:10N 51°56' E 003°43'0 0.0
2015-Sep-02 11:10N 51°56' E 003°43'0 0.0
2015-Sep-02 10:22N 51°56' E 003°43'0 0.1
2015-Sep-02 09:13N 51°56' E 003°43'0 0.1
2015-Sep-02 07:16N 51°56' E 003°43'0 0.0
2015-Sep-02 05:22N 51°56' E 003°43'0 0.0
2015-Sep-02 04:16N 51°56' E 003°43'0 0.0
2015-Sep-02 03:31N 51°56' E 003°43'0 0.1
2015-Sep-02 02:19N 51°56' E 003°43'0 0.1
2015-Sep-02 01:31N 51°56' E 003°43'0 0.1
2015-Sep-02 00:25N 51°56' E 003°43'0 0.0
2015-Sep-01 23:31N 51°56' E 003°43'0 0.0
2015-Sep-01 22:31N 51°56' E 003°43'0 0.0
2015-Sep-01 21:31N 51°56' E 003°43'0 0.1
2015-Sep-01 20:31N 51°56' E 003°43'0 0.0
2015-Sep-01 19:31N 51°56' E 003°43'0 0.0
2015-Sep-01 18:28N 51°56' E 003°43'0 0.0
2015-Sep-01 16:31N 51°56' E 003°43'0 0.0
2015-Sep-01 15:31N 51°56' E 003°43'0 0.1
2015-Sep-01 14:28N 51°56' E 003°43'0 0.1
2015-Sep-01 13:31N 51°56' E 003°43'0 0.0
2015-Sep-01 12:28N 51°56' E 003°43'0 0.0
2015-Sep-01 11:31N 51°56' E 003°43'0 0.0
2015-Sep-01 10:31N 51°56' E 003°43'0 0.0
2015-Sep-01 08:34N 51°56' E 003°43'0 0.0
2015-Sep-01 07:10N 51°56' E 003°43'0 0.0
2015-Sep-01 06:31N 51°56' E 003°43'0 0.1
2015-Sep-01 05:16N 51°56' E 003°43'0 0.0
2015-Sep-01 03:28N 51°56' E 003°43'0 0.0
2015-Sep-01 02:28N 51°56' E 003°43'0 0.1
2015-Sep-01 01:34N 51°56' E 003°43'0 0.0
2015-Sep-01 00:28N 51°56' E 003°43'0 0.0
2015-Aug-31 23:22N 51°56' E 003°43'0 0.0
2015-Aug-31 22:34N 51°56' E 003°43'0 0.0
2015-Aug-31 21:25N 51°56' E 003°43'0 0.1
2015-Aug-31 20:28N 51°56' E 003°43'0 0.1
2015-Aug-31 19:34N 51°56' E 003°43'0 0.1
2015-Aug-31 18:19N 51°56' E 003°43'0 0.0
2015-Aug-31 17:22N 51°56' E 003°43'2 2.0
2015-Aug-31 16:33N 51°57' E 003°44'8 8.1
2015-Aug-31 15:33N 52°02' E 003°55'9 8.8
2015-Aug-31 14:33N 51°58' E 004°08'8 7.9
2015-Aug-31 13:33N 51°54' E 004°19'2 1.8
2015-Aug-31 12:25N 51°54' E 004°22'0 0.0
2015-Aug-31 11:31N 51°54' E 004°22'0 0.0
2015-Aug-31 10:31N 51°54' E 004°22'0 0.0
2015-Aug-31 09:28N 51°54' E 004°22'0 0.0
2015-Aug-31 08:28N 51°54' E 004°22'0 0.0
2015-Aug-31 07:28N 51°54' E 004°22'0 0.0
2015-Aug-31 06:31N 51°54' E 004°22'0 0.0
2015-Aug-31 05:28N 51°54' E 004°22'0 0.0
2015-Aug-31 04:31N 51°54' E 004°22'0 0.0
2015-Aug-31 03:31N 51°54' E 004°22'0 0.0
2015-Aug-31 02:31N 51°54' E 004°22'0 0.0
2015-Aug-31 01:31N 51°54' E 004°22'0 0.0
2015-Aug-31 00:28N 51°54' E 004°22'0 0.0
2015-Aug-30 23:19N 51°54' E 004°22'0 0.0
2015-Aug-30 22:31N 51°54' E 004°22'0 0.0
2015-Aug-30 21:28N 51°54' E 004°22'0 0.0
2015-Aug-30 20:31N 51°54' E 004°22'0 0.0
2015-Aug-30 19:31N 51°54' E 004°22'0 0.0
2015-Aug-30 18:28N 51°54' E 004°22'0 0.0
2015-Aug-30 17:28N 51°54' E 004°22'0 0.0
2015-Aug-30 16:31N 51°54' E 004°22'0 0.0
2015-Aug-30 15:28N 51°54' E 004°22'0 0.0
2015-Aug-30 14:31N 51°54' E 004°22'0 0.0
2015-Aug-30 13:31N 51°54' E 004°22'0 0.0
2015-Aug-30 12:31N 51°54' E 004°22'0 0.0
2015-Aug-30 11:31N 51°54' E 004°22'0 0.0
2015-Aug-30 10:31N 51°54' E 004°22'0 0.0
2015-Aug-30 09:31N 51°54' E 004°22'0 0.0
2015-Aug-30 08:31N 51°54' E 004°22'0 0.0
2015-Aug-30 07:31N 51°54' E 004°22'0 0.0
2015-Aug-30 06:31N 51°54' E 004°22'0 0.0
2015-Aug-30 05:31N 51°54' E 004°22'0 0.0
2015-Aug-30 04:31N 51°54' E 004°22'0 0.0
2015-Aug-30 03:31N 51°54' E 004°22'0 0.0
2015-Aug-30 02:31N 51°54' E 004°22'0 0.0
2015-Aug-30 01:31N 51°54' E 004°22'0 0.0
2015-Aug-30 00:31N 51°54' E 004°22'0 0.0
2015-Aug-29 23:31N 51°54' E 004°22'0 0.0
2015-Aug-29 22:28N 51°54' E 004°22'0 0.0
2015-Aug-29 21:31N 51°54' E 004°22'0 0.0
2015-Aug-29 20:31N 51°54' E 004°22'0 0.0
2015-Aug-29 19:31N 51°54' E 004°22'0 0.0
2015-Aug-29 18:31N 51°54' E 004°22'0 0.0
2015-Aug-29 17:31N 51°54' E 004°22'0 0.0
2015-Aug-29 16:31N 51°54' E 004°22'0 0.0
2015-Aug-29 15:31N 51°54' E 004°22'0 0.0
2015-Aug-29 14:31N 51°54' E 004°22'0 0.0
2015-Aug-29 13:31N 51°54' E 004°22'0 0.0
2015-Aug-29 12:31N 51°54' E 004°22'0 0.0
2015-Aug-29 11:31N 51°54' E 004°22'0 0.0
2015-Aug-29 10:31N 51°54' E 004°22'0 0.0
2015-Aug-29 09:31N 51°54' E 004°22'0 0.0
2015-Aug-29 08:31N 51°54' E 004°22'0 0.0
2015-Aug-29 07:31N 51°54' E 004°22'0 0.0
2015-Aug-29 06:31N 51°54' E 004°22'0 0.0
2015-Aug-29 05:31N 51°54' E 004°22'0 0.0
2015-Aug-29 04:31N 51°54' E 004°22'0 0.0
2015-Aug-29 03:28N 51°54' E 004°22'0 0.0
2015-Aug-29 02:31N 51°54' E 004°22'0 0.0
2015-Aug-29 01:31N 51°54' E 004°22'0 0.0
2015-Aug-29 00:31N 51°54' E 004°22'0 0.0
2015-Aug-28 23:28N 51°54' E 004°22'0 0.0
2015-Aug-28 22:31N 51°54' E 004°22'0 0.0
2015-Aug-28 21:31N 51°54' E 004°22'0 0.0
2015-Aug-28 20:31N 51°54' E 004°22'0 0.0
2015-Aug-28 19:34N 51°54' E 004°22'0 0.0
2015-Aug-28 18:31N 51°54' E 004°22'0 0.1
2015-Aug-28 17:33N 51°54' E 004°22'6 5.9
2015-Aug-28 16:34N 51°56' E 004°13'9 8.7
2015-Aug-28 15:34N 51°60' E 004°00'1010.4
2015-Aug-28 14:34N 51°59' E 003°43'1110.8
2015-Aug-28 13:33N 51°56' E 003°27'1211.3
2015-Aug-28 12:32N 51°52' E 003°09'1111.1
2015-Aug-28 11:33N 51°49' E 002°52'2511.0
2015-Aug-28 09:19N 51°33' E 002°21'810.5
2015-Aug-28 08:33N 51°27' E 002°13'9 9.0
2015-Aug-28 07:34N 51°19' E 002°06'8 7.8
2015-Aug-28 06:34N 51°12' E 002°01'8 7.7
2015-Aug-28 05:34N 51°08' E 001°51'8 7.5
2015-Aug-28 04:33N 51°03' E 001°42'8 8.0
2015-Aug-28 03:32N 50°57' E 001°33'9 9.1
2015-Aug-28 02:33N 50°49' E 001°26'  

Dump ship's entire track history